sensor_id;sensor_type;location;lat;lon;timestamp;temperature;humidity
7248;DHT22;3665;51.034;13.642;2023-02-23T00:01:39;4.50;99.90
7248;DHT22;3665;51.034;13.642;2023-02-23T00:06:25;4.60;99.90
7248;DHT22;3665;51.034;13.642;2023-02-23T00:11:13;4.70;99.90
7248;DHT22;3665;51.034;13.642;2023-02-23T00:16:20;4.70;99.90
7248;DHT22;3665;51.034;13.642;2023-02-23T00:21:12;4.80;99.90
7248;DHT22;3665;51.034;13.642;2023-02-23T00:26:08;4.80;99.90
7248;DHT22;3665;51.034;13.642;2023-02-23T00:30:56;4.80;99.90
7248;DHT22;3665;51.034;13.642;2023-02-23T00:35:44;4.70;99.90
7248;DHT22;3665;51.034;13.642;2023-02-23T00:40:34;5.00;99.90
7248;DHT22;3665;51.034;13.642;2023-02-23T00:45:20;4.90;99.90
7248;DHT22;3665;51.034;13.642;2023-02-23T00:50:12;4.90;99.90
7248;DHT22;3665;51.034;13.642;2023-02-23T00:54:58;4.80;99.90
7248;DHT22;3665;51.034;13.642;2023-02-23T00:59:43;4.60;99.90
7248;DHT22;3665;51.034;13.642;2023-02-23T01:04:32;4.80;99.90
7248;DHT22;3665;51.034;13.642;2023-02-23T01:09:25;5.00;99.90
7248;DHT22;3665;51.034;13.642;2023-02-23T01:14:11;5.00;99.90
7248;DHT22;3665;51.034;13.642;2023-02-23T01:18:58;5.00;99.90
7248;DHT22;3665;51.034;13.642;2023-02-23T01:23:45;5.00;99.90
7248;DHT22;3665;51.034;13.642;2023-02-23T01:28:33;5.00;99.90
7248;DHT22;3665;51.034;13.642;2023-02-23T01:33:21;5.00;99.90
7248;DHT22;3665;51.034;13.642;2023-02-23T01:38:07;5.10;99.90
7248;DHT22;3665;51.034;13.642;2023-02-23T01:42:58;5.00;99.90
7248;DHT22;3665;51.034;13.642;2023-02-23T01:47:43;5.00;99.90
7248;DHT22;3665;51.034;13.642;2023-02-23T01:52:33;4.90;99.90
7248;DHT22;3665;51.034;13.642;2023-02-23T01:57:22;4.90;99.90
7248;DHT22;3665;51.034;13.642;2023-02-23T02:02:11;4.90;99.90
7248;DHT22;3665;51.034;13.642;2023-02-23T02:06:55;4.90;99.90
7248;DHT22;3665;51.034;13.642;2023-02-23T02:11:46;4.80;99.90
7248;DHT22;3665;51.034;13.642;2023-02-23T02:17:05;4.80;99.90
7248;DHT22;3665;51.034;13.642;2023-02-23T02:22:24;4.70;99.90
7248;DHT22;3665;51.034;13.642;2023-02-23T02:27:38;4.70;99.90
7248;DHT22;3665;51.034;13.642;2023-02-23T02:33:08;4.80;99.90
7248;DHT22;3665;51.034;13.642;2023-02-23T02:38:11;4.90;99.90
7248;DHT22;3665;51.034;13.642;2023-02-23T02:43:15;4.90;99.90
7248;DHT22;3665;51.034;13.642;2023-02-23T02:48:05;5.00;99.90
7248;DHT22;3665;51.034;13.642;2023-02-23T02:53:06;5.10;99.90
7248;DHT22;3665;51.034;13.642;2023-02-23T02:57:55;5.10;99.90
7248;DHT22;3665;51.034;13.642;2023-02-23T03:02:40;5.20;99.90
7248;DHT22;3665;51.034;13.642;2023-02-23T03:07:47;5.10;99.90
7248;DHT22;3665;51.034;13.642;2023-02-23T03:13:03;5.10;99.90
7248;DHT22;3665;51.034;13.642;2023-02-23T03:18:14;5.10;99.90
7248;DHT22;3665;51.034;13.642;2023-02-23T03:23:22;5.10;99.90
7248;DHT22;3665;51.034;13.642;2023-02-23T03:28:32;5.10;99.90
7248;DHT22;3665;51.034;13.642;2023-02-23T03:33:40;5.10;99.90
7248;DHT22;3665;51.034;13.642;2023-02-23T03:38:55;5.10;99.90
7248;DHT22;3665;51.034;13.642;2023-02-23T03:44:05;5.10;99.90
7248;DHT22;3665;51.034;13.642;2023-02-23T03:49:13;5.10;99.90
7248;DHT22;3665;51.034;13.642;2023-02-23T03:54:19;5.20;99.90
7248;DHT22;3665;51.034;13.642;2023-02-23T03:59:27;5.20;99.90
7248;DHT22;3665;51.034;13.642;2023-02-23T04:04:33;5.20;99.90
7248;DHT22;3665;51.034;13.642;2023-02-23T04:09:35;5.20;99.90
7248;DHT22;3665;51.034;13.642;2023-02-23T04:14:44;5.20;99.90
7248;DHT22;3665;51.034;13.642;2023-02-23T04:19:29;5.20;99.90
7248;DHT22;3665;51.034;13.642;2023-02-23T04:24:15;5.30;99.90
7248;DHT22;3665;51.034;13.642;2023-02-23T04:29:04;5.20;99.90
7248;DHT22;3665;51.034;13.642;2023-02-23T04:33:58;5.20;99.90
7248;DHT22;3665;51.034;13.642;2023-02-23T04:38:41;5.10;99.90
7248;DHT22;3665;51.034;13.642;2023-02-23T04:43:27;5.00;99.90
7248;DHT22;3665;51.034;13.642;2023-02-23T04:48:16;4.90;99.90
7248;DHT22;3665;51.034;13.642;2023-02-23T04:53:10;4.90;99.90
7248;DHT22;3665;51.034;13.642;2023-02-23T04:57:56;5.00;99.90
7248;DHT22;3665;51.034;13.642;2023-02-23T05:02:41;4.90;99.90
7248;DHT22;3665;51.034;13.642;2023-02-23T05:07:30;4.70;99.90
7248;DHT22;3665;51.034;13.642;2023-02-23T05:12:15;4.60;99.90
7248;DHT22;3665;51.034;13.642;2023-02-23T05:17:05;4.50;99.90
7248;DHT22;3665;51.034;13.642;2023-02-23T05:21:49;4.40;99.90
7248;DHT22;3665;51.034;13.642;2023-02-23T05:26:41;4.30;99.90
7248;DHT22;3665;51.034;13.642;2023-02-23T05:31:29;4.30;99.90
7248;DHT22;3665;51.034;13.642;2023-02-23T05:36:17;4.20;99.90
7248;DHT22;3665;51.034;13.642;2023-02-23T05:41:04;4.20;99.90
7248;DHT22;3665;51.034;13.642;2023-02-23T05:45:53;4.40;99.90
7248;DHT22;3665;51.034;13.642;2023-02-23T05:50:41;4.40;99.90
7248;DHT22;3665;51.034;13.642;2023-02-23T05:55:31;4.30;99.90
7248;DHT22;3665;51.034;13.642;2023-02-23T06:00:17;4.10;99.90
7248;DHT22;3665;51.034;13.642;2023-02-23T06:05:07;4.00;99.90
7248;DHT22;3665;51.034;13.642;2023-02-23T06:09:52;3.90;99.90
7248;DHT22;3665;51.034;13.642;2023-02-23T06:14:42;4.00;99.90
7248;DHT22;3665;51.034;13.642;2023-02-23T06:19:28;4.10;99.90
7248;DHT22;3665;51.034;13.642;2023-02-23T06:24:18;4.20;99.90
7248;DHT22;3665;51.034;13.642;2023-02-23T06:29:04;4.30;99.90
7248;DHT22;3665;51.034;13.642;2023-02-23T06:33:52;4.50;99.90
7248;DHT22;3665;51.034;13.642;2023-02-23T06:38:42;4.80;99.90
7248;DHT22;3665;51.034;13.642;2023-02-23T06:43:27;4.80;99.90
7248;DHT22;3665;51.034;13.642;2023-02-23T06:48:20;5.00;99.90
7248;DHT22;3665;51.034;13.642;2023-02-23T06:53:03;5.10;99.90
7248;DHT22;3665;51.034;13.642;2023-02-23T06:57:48;5.30;99.90
7248;DHT22;3665;51.034;13.642;2023-02-23T07:02:41;5.40;99.90
7248;DHT22;3665;51.034;13.642;2023-02-23T07:07:29;5.50;99.90
7248;DHT22;3665;51.034;13.642;2023-02-23T07:12:15;5.70;99.90
7248;DHT22;3665;51.034;13.642;2023-02-23T07:17:04;5.90;99.90
7248;DHT22;3665;51.034;13.642;2023-02-23T07:21:56;6.10;99.90
7248;DHT22;3665;51.034;13.642;2023-02-23T07:26:41;6.30;99.90
7248;DHT22;3665;51.034;13.642;2023-02-23T07:31:27;6.40;99.90
7248;DHT22;3665;51.034;13.642;2023-02-23T07:36:17;6.50;99.90
7248;DHT22;3665;51.034;13.642;2023-02-23T07:41:07;6.80;99.90
7248;DHT22;3665;51.034;13.642;2023-02-23T07:45:58;7.10;99.90
7248;DHT22;3665;51.034;13.642;2023-02-23T07:50:42;7.30;99.90
7248;DHT22;3665;51.034;13.642;2023-02-23T07:55:28;7.40;99.90
7248;DHT22;3665;51.034;13.642;2023-02-23T08:00:16;7.50;99.90
7248;DHT22;3665;51.034;13.642;2023-02-23T08:05:04;7.60;99.90
7248;DHT22;3665;51.034;13.642;2023-02-23T08:09:53;7.80;99.90
7248;DHT22;3665;51.034;13.642;2023-02-23T08:14:40;8.00;99.90
7248;DHT22;3665;51.034;13.642;2023-02-23T08:19:29;8.20;99.90
7248;DHT22;3665;51.034;13.642;2023-02-23T08:24:17;8.50;99.90
7248;DHT22;3665;51.034;13.642;2023-02-23T08:29:04;8.60;1.00
7248;DHT22;3665;51.034;13.642;2023-02-23T08:33:48;8.90;99.90
7248;DHT22;3665;51.034;13.642;2023-02-23T08:38:33;9.20;99.90
7248;DHT22;3665;51.034;13.642;2023-02-23T08:43:32;9.40;99.90
7248;DHT22;3665;51.034;13.642;2023-02-23T08:48:15;9.50;99.90
7248;DHT22;3665;51.034;13.642;2023-02-23T08:53:04;9.70;99.90
7248;DHT22;3665;51.034;13.642;2023-02-23T08:57:53;9.70;99.90
7248;DHT22;3665;51.034;13.642;2023-02-23T09:02:41;9.80;99.90
7248;DHT22;3665;51.034;13.642;2023-02-23T09:07:27;9.80;99.90
7248;DHT22;3665;51.034;13.642;2023-02-23T09:12:15;10.00;99.90
7248;DHT22;3665;51.034;13.642;2023-02-23T09:17:04;10.30;99.90
7248;DHT22;3665;51.034;13.642;2023-02-23T09:21:52;10.50;99.90
7248;DHT22;3665;51.034;13.642;2023-02-23T09:26:41;10.60;99.90
7248;DHT22;3665;51.034;13.642;2023-02-23T09:31:30;11.00;94.80
7248;DHT22;3665;51.034;13.642;2023-02-23T09:36:19;11.40;76.20
7248;DHT22;3665;51.034;13.642;2023-02-23T09:41:15;11.60;84.70
7248;DHT22;3665;51.034;13.642;2023-02-23T09:46:14;12.10;73.60
7248;DHT22;3665;51.034;13.642;2023-02-23T09:51:14;12.70;63.80
7248;DHT22;3665;51.034;13.642;2023-02-23T09:55:59;13.40;57.40
7248;DHT22;3665;51.034;13.642;2023-02-23T10:05:56;14.00;49.20
7248;DHT22;3665;51.034;13.642;2023-02-23T10:10:46;14.10;50.80
7248;DHT22;3665;51.034;13.642;2023-02-23T10:15:36;14.60;46.00
7248;DHT22;3665;51.034;13.642;2023-02-23T10:20:42;14.50;48.70
7248;DHT22;3665;51.034;13.642;2023-02-23T10:25:35;14.70;48.00
7248;DHT22;3665;51.034;13.642;2023-02-23T10:30:27;14.70;48.00
7248;DHT22;3665;51.034;13.642;2023-02-23T10:35:13;14.80;46.10
7248;DHT22;3665;51.034;13.642;2023-02-23T10:40:01;14.80;45.40
7248;DHT22;3665;51.034;13.642;2023-02-23T10:44:49;15.10;45.50
7248;DHT22;3665;51.034;13.642;2023-02-23T10:49:40;14.90;62.20
7248;DHT22;3665;51.034;13.642;2023-02-23T10:54:42;15.00;45.60
7248;DHT22;3665;51.034;13.642;2023-02-23T10:59:28;15.00;46.50
7248;DHT22;3665;51.034;13.642;2023-02-23T11:04:17;14.90;45.80
7248;DHT22;3665;51.034;13.642;2023-02-23T11:09:17;15.10;47.90
7248;DHT22;3665;51.034;13.642;2023-02-23T11:14:29;15.20;48.20
7248;DHT22;3665;51.034;13.642;2023-02-23T11:19:20;15.40;48.20
7248;DHT22;3665;51.034;13.642;2023-02-23T11:24:24;15.70;48.10
7248;DHT22;3665;51.034;13.642;2023-02-23T11:29:23;16.20;47.20
7248;DHT22;3665;51.034;13.642;2023-02-23T11:34:21;16.50;47.60
7248;DHT22;3665;51.034;13.642;2023-02-23T11:39:17;16.30;46.30
7248;DHT22;3665;51.034;13.642;2023-02-23T11:44:02;16.70;48.10
7248;DHT22;3665;51.034;13.642;2023-02-23T11:49:03;16.80;48.10
7248;DHT22;3665;51.034;13.642;2023-02-23T11:53:57;16.80;48.20
7248;DHT22;3665;51.034;13.642;2023-02-23T11:58:43;16.80;47.20
7248;DHT22;3665;51.034;13.642;2023-02-23T12:03:31;16.70;46.40
7248;DHT22;3665;51.034;13.642;2023-02-23T12:08:19;16.30;45.90
7248;DHT22;3665;51.034;13.642;2023-02-23T12:13:24;15.60;44.90
7248;DHT22;3665;51.034;13.642;2023-02-23T12:18:18;15.50;47.00
7248;DHT22;3665;51.034;13.642;2023-02-23T12:23:17;15.30;48.90
7248;DHT22;3665;51.034;13.642;2023-02-23T12:28:08;15.70;47.00
7248;DHT22;3665;51.034;13.642;2023-02-23T12:33:10;14.80;47.80
7248;DHT22;3665;51.034;13.642;2023-02-23T12:38:14;15.00;47.00
7248;DHT22;3665;51.034;13.642;2023-02-23T12:43:18;15.10;47.10
7248;DHT22;3665;51.034;13.642;2023-02-23T12:48:33;15.50;47.90
7248;DHT22;3665;51.034;13.642;2023-02-23T12:53:21;15.90;47.70
7248;DHT22;3665;51.034;13.642;2023-02-23T12:58:15;16.30;48.90
7248;DHT22;3665;51.034;13.642;2023-02-23T13:08:44;15.90;48.40
7248;DHT22;3665;51.034;13.642;2023-02-23T13:13:44;15.90;47.80
7248;DHT22;3665;51.034;13.642;2023-02-23T13:18:43;15.70;47.30
7248;DHT22;3665;51.034;13.642;2023-02-23T13:23:34;15.30;46.30
7248;DHT22;3665;51.034;13.642;2023-02-23T13:28:37;15.30;51.90
7248;DHT22;3665;51.034;13.642;2023-02-23T13:33:36;15.20;48.70
7248;DHT22;3665;51.034;13.642;2023-02-23T13:38:29;14.90;51.00
7248;DHT22;3665;51.034;13.642;2023-02-23T13:43:37;14.80;50.10
7248;DHT22;3665;51.034;13.642;2023-02-23T13:48:41;14.60;50.40
7248;DHT22;3665;51.034;13.642;2023-02-23T13:53:45;14.30;52.40
7248;DHT22;3665;51.034;13.642;2023-02-23T13:58:45;13.80;56.80
7248;DHT22;3665;51.034;13.642;2023-02-23T14:03:53;13.50;60.40
7248;DHT22;3665;51.034;13.642;2023-02-23T14:08:51;13.40;60.50
7248;DHT22;3665;51.034;13.642;2023-02-23T14:13:40;13.20;63.60
7248;DHT22;3665;51.034;13.642;2023-02-23T14:19:05;13.00;67.30
7248;DHT22;3665;51.034;13.642;2023-02-23T14:24:08;12.80;69.90
7248;DHT22;3665;51.034;13.642;2023-02-23T14:29:21;12.50;92.40
7248;DHT22;3665;51.034;13.642;2023-02-23T14:34:11;12.30;97.40
7248;DHT22;3665;51.034;13.642;2023-02-23T14:38:59;12.20;99.90
7248;DHT22;3665;51.034;13.642;2023-02-23T14:43:44;11.90;99.90
7248;DHT22;3665;51.034;13.642;2023-02-23T14:48:32;11.70;99.90
7248;DHT22;3665;51.034;13.642;2023-02-23T14:53:20;11.50;99.90
7248;DHT22;3665;51.034;13.642;2023-02-23T14:58:24;11.20;99.90
7248;DHT22;3665;51.034;13.642;2023-02-23T15:03:12;11.10;99.90
7248;DHT22;3665;51.034;13.642;2023-02-23T15:08:02;11.00;99.90
7248;DHT22;3665;51.034;13.642;2023-02-23T15:12:49;10.90;1.00
7248;DHT22;3665;51.034;13.642;2023-02-23T15:17:39;10.90;1.00
7248;DHT22;3665;51.034;13.642;2023-02-23T15:22:29;11.00;1.00
7248;DHT22;3665;51.034;13.642;2023-02-23T15:27:19;11.10;99.90
7248;DHT22;3665;51.034;13.642;2023-02-23T15:32:19;11.00;99.90
7248;DHT22;3665;51.034;13.642;2023-02-23T15:37:27;11.10;99.90
7248;DHT22;3665;51.034;13.642;2023-02-23T15:42:30;11.00;1.00
7248;DHT22;3665;51.034;13.642;2023-02-23T15:47:20;10.70;1.00
7248;DHT22;3665;51.034;13.642;2023-02-23T15:52:16;10.70;1.00
7248;DHT22;3665;51.034;13.642;2023-02-23T15:57:07;10.60;1.00
7248;DHT22;3665;51.034;13.642;2023-02-23T16:02:13;10.60;1.00
7248;DHT22;3665;51.034;13.642;2023-02-23T16:07:15;10.50;1.00
7248;DHT22;3665;51.034;13.642;2023-02-23T16:12:01;10.40;1.00
7248;DHT22;3665;51.034;13.642;2023-02-23T16:16:48;10.20;1.00
7248;DHT22;3665;51.034;13.642;2023-02-23T16:21:54;10.20;1.00
7248;DHT22;3665;51.034;13.642;2023-02-23T16:26:45;10.10;5.00
7248;DHT22;3665;51.034;13.642;2023-02-23T16:32:07;10.00;8.80
7248;DHT22;3665;51.034;13.642;2023-02-23T16:37:23;9.90;99.90
7248;DHT22;3665;51.034;13.642;2023-02-23T16:42:16;9.80;99.90
7248;DHT22;3665;51.034;13.642;2023-02-23T16:47:30;9.70;99.90
7248;DHT22;3665;51.034;13.642;2023-02-23T16:52:20;9.60;99.90
7248;DHT22;3665;51.034;13.642;2023-02-23T16:57:05;9.50;90.90
7248;DHT22;3665;51.034;13.642;2023-02-23T17:02:00;9.40;1.00
7248;DHT22;3665;51.034;13.642;2023-02-23T17:06:56;9.30;1.00
7248;DHT22;3665;51.034;13.642;2023-02-23T17:11:45;9.30;99.90
7248;DHT22;3665;51.034;13.642;2023-02-23T17:16:35;9.20;99.90
7248;DHT22;3665;51.034;13.642;2023-02-23T17:21:21;9.20;1.00
7248;DHT22;3665;51.034;13.642;2023-02-23T17:26:09;9.30;1.00
7248;DHT22;3665;51.034;13.642;2023-02-23T17:30:57;9.30;1.00
7248;DHT22;3665;51.034;13.642;2023-02-23T17:35:47;9.10;99.90
7248;DHT22;3665;51.034;13.642;2023-02-23T17:40:33;9.10;1.00
7248;DHT22;3665;51.034;13.642;2023-02-23T17:45:19;9.10;99.90
7248;DHT22;3665;51.034;13.642;2023-02-23T17:50:08;9.10;99.90
7248;DHT22;3665;51.034;13.642;2023-02-23T17:54:55;9.00;99.90
7248;DHT22;3665;51.034;13.642;2023-02-23T17:59:43;9.00;99.90
7248;DHT22;3665;51.034;13.642;2023-02-23T18:04:36;9.10;99.90
7248;DHT22;3665;51.034;13.642;2023-02-23T18:09:21;9.00;99.90
7248;DHT22;3665;51.034;13.642;2023-02-23T18:14:08;8.90;99.90
7248;DHT22;3665;51.034;13.642;2023-02-23T18:18:57;8.80;99.90
7248;DHT22;3665;51.034;13.642;2023-02-23T18:24:01;8.80;99.90
7248;DHT22;3665;51.034;13.642;2023-02-23T18:28:49;8.70;99.90
7248;DHT22;3665;51.034;13.642;2023-02-23T18:33:38;8.70;99.90
7248;DHT22;3665;51.034;13.642;2023-02-23T18:38:25;8.60;99.90
7248;DHT22;3665;51.034;13.642;2023-02-23T18:43:12;8.60;99.90
7248;DHT22;3665;51.034;13.642;2023-02-23T18:48:03;8.80;99.90
7248;DHT22;3665;51.034;13.642;2023-02-23T18:53:08;8.70;99.90
7248;DHT22;3665;51.034;13.642;2023-02-23T18:57:53;8.80;99.90
7248;DHT22;3665;51.034;13.642;2023-02-23T19:02:40;8.80;99.90
7248;DHT22;3665;51.034;13.642;2023-02-23T19:07:29;8.80;99.90
7248;DHT22;3665;51.034;13.642;2023-02-23T19:12:18;8.80;99.90
7248;DHT22;3665;51.034;13.642;2023-02-23T19:17:05;8.80;99.90
7248;DHT22;3665;51.034;13.642;2023-02-23T19:21:52;8.80;99.90
7248;DHT22;3665;51.034;13.642;2023-02-23T19:26:59;8.80;99.90
7248;DHT22;3665;51.034;13.642;2023-02-23T19:31:44;8.70;99.90
7248;DHT22;3665;51.034;13.642;2023-02-23T19:36:32;8.80;99.90
7248;DHT22;3665;51.034;13.642;2023-02-23T19:41:20;8.70;99.90
7248;DHT22;3665;51.034;13.642;2023-02-23T19:46:11;8.70;99.90
7248;DHT22;3665;51.034;13.642;2023-02-23T19:50:56;8.60;99.90
7248;DHT22;3665;51.034;13.642;2023-02-23T19:55:44;8.60;99.90
7248;DHT22;3665;51.034;13.642;2023-02-23T20:00:33;8.50;99.90
7248;DHT22;3665;51.034;13.642;2023-02-23T20:05:22;8.50;99.90
7248;DHT22;3665;51.034;13.642;2023-02-23T20:10:10;8.50;99.90
7248;DHT22;3665;51.034;13.642;2023-02-23T20:14:57;8.40;99.90
7248;DHT22;3665;51.034;13.642;2023-02-23T20:19:44;8.50;99.90
7248;DHT22;3665;51.034;13.642;2023-02-23T20:24:37;8.40;99.90
7248;DHT22;3665;51.034;13.642;2023-02-23T20:29:20;8.40;99.90
7248;DHT22;3665;51.034;13.642;2023-02-23T20:34:08;8.40;99.90
7248;DHT22;3665;51.034;13.642;2023-02-23T20:38:56;8.40;99.90
7248;DHT22;3665;51.034;13.642;2023-02-23T20:43:45;8.40;99.90
7248;DHT22;3665;51.034;13.642;2023-02-23T20:48:33;8.30;99.90
7248;DHT22;3665;51.034;13.642;2023-02-23T20:53:19;8.40;99.90
7248;DHT22;3665;51.034;13.642;2023-02-23T20:58:10;8.30;99.90
7248;DHT22;3665;51.034;13.642;2023-02-23T21:03:17;8.30;99.90
7248;DHT22;3665;51.034;13.642;2023-02-23T21:08:56;8.30;99.90
7248;DHT22;3665;51.034;13.642;2023-02-23T21:14:25;8.20;99.90
7248;DHT22;3665;51.034;13.642;2023-02-23T21:26:59;8.30;99.90
7248;DHT22;3665;51.034;13.642;2023-02-23T21:40:01;8.30;99.90
7248;DHT22;3665;51.034;13.642;2023-02-23T21:45:22;8.30;99.90
7248;DHT22;3665;51.034;13.642;2023-02-23T21:56:24;8.30;99.90
7248;DHT22;3665;51.034;13.642;2023-02-23T22:01:56;8.30;99.90
7248;DHT22;3665;51.034;13.642;2023-02-23T22:06:42;8.20;99.90
7248;DHT22;3665;51.034;13.642;2023-02-23T22:11:29;8.20;99.90
7248;DHT22;3665;51.034;13.642;2023-02-23T22:16:32;8.10;99.90
7248;DHT22;3665;51.034;13.642;2023-02-23T22:21:21;8.10;99.90
7248;DHT22;3665;51.034;13.642;2023-02-23T22:26:09;8.00;99.90
7248;DHT22;3665;51.034;13.642;2023-02-23T22:30:56;8.10;99.90
7248;DHT22;3665;51.034;13.642;2023-02-23T22:35:45;8.00;99.90
7248;DHT22;3665;51.034;13.642;2023-02-23T22:40:34;7.80;99.90
7248;DHT22;3665;51.034;13.642;2023-02-23T22:45:22;7.80;99.90
7248;DHT22;3665;51.034;13.642;2023-02-23T22:50:10;7.70;99.90
7248;DHT22;3665;51.034;13.642;2023-02-23T22:54:56;7.60;99.90
7248;DHT22;3665;51.034;13.642;2023-02-23T22:59:45;7.60;99.90
7248;DHT22;3665;51.034;13.642;2023-02-23T23:04:48;7.60;99.90
7248;DHT22;3665;51.034;13.642;2023-02-23T23:09:36;7.50;99.90
7248;DHT22;3665;51.034;13.642;2023-02-23T23:14:25;7.40;99.90
7248;DHT22;3665;51.034;13.642;2023-02-23T23:19:15;7.40;99.90
7248;DHT22;3665;51.034;13.642;2023-02-23T23:24:01;7.40;99.90
7248;DHT22;3665;51.034;13.642;2023-02-23T23:28:49;7.50;99.90
7248;DHT22;3665;51.034;13.642;2023-02-23T23:33:38;7.50;99.90
7248;DHT22;3665;51.034;13.642;2023-02-23T23:38:45;7.40;99.90
7248;DHT22;3665;51.034;13.642;2023-02-23T23:43:28;7.30;99.90
7248;DHT22;3665;51.034;13.642;2023-02-23T23:48:15;7.30;99.90
7248;DHT22;3665;51.034;13.642;2023-02-23T23:53:05;7.30;99.90
7248;DHT22;3665;51.034;13.642;2023-02-23T23:57:54;7.30;99.90
